EDDMLPMA

Guest
Details From EDDM - Muenchen Franz-josef Strauss
To LPMA - Madeira
Flight Number -
Tags Generated
Created
Modified
Stats Distance 1,591 nm / 2,947 km
Max Altitude 0 ft / 0 m
Waypoints 8
Social Downloads 1
Likes 0
Share VATSIM

Download

Looking for another format? Having issues loading an existing format? Contact us
Advertisement - Login to hide

Notes

Generated

Route

EDDM TELNO GAI53 LPA RIDAV GANSU MAD LPMA

ID Type Via Altitude Latitude Longitude Leg Dist Tot Dist Heading (true) Name
O EDDM APT - 0 ft / 0 m 48.34069˚ 11.75108˚ - 0 nm - -
TELNO FIX - 0 ft / 0 m 46.77194˚ 7.27083˚ 204 nm 204 nm 244° / 241° -
GAI53 FIX - 0 ft / 0 m 44.74361˚ 2.39333˚ 237 nm 442 nm 241° / 237° -
LPA VOR - 0 ft / 0 m 42.46054˚ -2.32691˚ 246 nm 689 nm 238° / 235° LOGRONO VOR-DME
RIDAV FIX - 0 ft / 0 m 40.53524˚ -5.80829˚ 194 nm 883 nm 235° / 232° -
GANSU FIX - 0 ft / 0 m 38.00000˚ -9.81750˚ 240 nm 1124 nm 232° / 230° -
MAD NDB - 0 ft / 0 m 32.74813˚ -16.70651˚ 461 nm 1586 nm 229° / 225° MADEIRA NDB
O LPMA APT - 0 ft / 0 m 32.68900˚ -16.78409˚ 5 nm 1591 nm 228° / 228° -

Altitude Profile

Advertisement - Login to hide

Weather


0- 5 10 15 20 25 30 35+ Temperature / ° C

Clouds and Precipitation
Forecast for 2017-12-15 12:00 UTC. Updated an hour ago

Ground ~20,000 ft ~40,000 ft Winds

EDDM

Details ICAO EDDM (MUC)
Name Muenchen Franz-Josef Strauss
Region Germany - Civil
Timezone Europe/Berlin (UTC+1.0)
Stats Elevation 1,487 ft / 453 m (AMSL)
Location 48.353786° 11.786117°
Runways 2
Magnetic Variation 3.161° E

METAR

EDDM 151220Z 26014KT 9999 FEW030 SCT080 05/M02 Q0999 NOSIG

Decode

TAF

TAF EDDM 151100Z 1512/1618 25012KT 9999 FEW020 BECMG 1515/1517 24007KT TEMPO 1606/1618 2500 -SHSN SCT008 BKN012TCU PROB30 TEMPO 1609/1612 30015G30KT 1000 SHSN SCT004 BKN008TCU

Decode

Departure Runways

ID Width Length Bearing (true) Bearing (mag) Surface Threshold Offset Overrun Length
08L 197 ft / 60 m 13,086 ft / 3,989 m 83.38° 80.22° Concrete 0 ft / 0 m 0 ft / 0 m
08R 197 ft / 60 m 13,086 ft / 3,989 m 83.37° 80.21° Concrete 0 ft / 0 m 0 ft / 0 m
26L 197 ft / 60 m 13,086 ft / 3,989 m 263.41° 260.25° Concrete 0 ft / 0 m 0 ft / 0 m
26R 197 ft / 60 m 13,086 ft / 3,989 m 263.42° 260.26° Concrete 0 ft / 0 m 0 ft / 0 m

LPMA

Details ICAO LPMA (FNC)
Name Madeira
Region Portugal
Timezone Atlantic/Madeira (UTC+0.0)
Stats Elevation 192 ft / 59 m (AMSL)
Location 32.697704° -16.774449°
Runways 1
Magnetic Variation 4.981° W

METAR

LPMA 151230Z 20008KT 9999 SCT015 21/15 Q1026

Decode

TAF

TAF LPMA 151110Z 1512/1612 VRB05KT 9999 SCT015 TEMPO 1512/1612 SCT013 BKN060 PROB40 TEMPO 1512/1612 6000 -RA BKN013 BECMG 1514/1517 35010KT

Decode

Destination Runways

ID Width Length Bearing (true) Bearing (mag) Surface Threshold Offset Overrun Length
05 141 ft / 43 m 8,683 ft / 2,647 m 42.98° 47.96° Asphalt 472 ft / 144 m 0 ft / 0 m
23 141 ft / 43 m 8,683 ft / 2,647 m 222.99° 227.97° Asphalt 466 ft / 142 m 0 ft / 0 m

Popular Alternatives